createdAt,value
2019-05-16T00:01:27.000Z,98746
2019-05-16T00:03:00.000Z,98744
2019-05-16T00:05:09.000Z,98741
2019-05-16T00:06:38.000Z,98742
2019-05-16T00:08:50.000Z,98739
2019-05-16T00:10:18.000Z,98737
2019-05-16T00:12:27.000Z,98738
2019-05-16T00:14:01.000Z,98737
2019-05-16T00:16:11.000Z,98738
2019-05-16T00:17:43.000Z,98737
2019-05-16T00:19:52.000Z,98736
2019-05-16T00:21:23.000Z,98734
2019-05-16T00:23:34.000Z,98732
2019-05-16T00:25:07.000Z,98734
2019-05-16T00:27:16.000Z,98734
2019-05-16T00:28:44.000Z,98732
2019-05-16T00:32:04.000Z,98729
2019-05-16T00:33:26.000Z,98729
2019-05-16T00:35:29.000Z,98727
2019-05-16T00:36:51.000Z,98726
2019-05-16T00:38:52.000Z,98728
2019-05-16T00:40:14.000Z,98729
2019-05-16T00:42:16.000Z,98729
2019-05-16T00:43:39.000Z,98727
2019-05-16T00:45:40.000Z,98726
2019-05-16T00:47:03.000Z,98724
2019-05-16T00:49:04.000Z,98722
2019-05-16T00:50:27.000Z,98721
2019-05-16T00:52:29.000Z,98721
2019-05-16T00:53:51.000Z,98719
2019-05-16T00:55:52.000Z,98717
2019-05-16T00:57:14.000Z,98715
2019-05-16T00:59:19.000Z,98712
2019-05-16T01:00:41.000Z,98710
2019-05-16T01:02:42.000Z,98709
2019-05-16T01:04:04.000Z,98704
2019-05-16T01:06:05.000Z,98701
2019-05-16T01:07:44.000Z,98698
2019-05-16T01:09:46.000Z,98697
2019-05-16T01:11:11.000Z,98693
2019-05-16T01:13:13.000Z,98693
2019-05-16T01:14:35.000Z,98691
2019-05-16T01:16:39.000Z,98689
2019-05-16T01:18:01.000Z,98687
2019-05-16T01:20:02.000Z,98685
2019-05-16T01:21:25.000Z,98685
2019-05-16T01:23:26.000Z,98684
2019-05-16T01:24:50.000Z,98684
2019-05-16T01:26:52.000Z,98683
2019-05-16T01:28:14.000Z,98682
2019-05-16T01:30:15.000Z,98679
2019-05-16T01:31:37.000Z,98679
2019-05-16T01:33:38.000Z,98676
2019-05-16T01:35:00.000Z,98677
2019-05-16T01:37:01.000Z,98674
2019-05-16T01:38:24.000Z,98674
2019-05-16T01:40:25.000Z,98669
2019-05-16T01:41:50.000Z,98667
2019-05-16T01:43:51.000Z,98666
2019-05-16T01:45:14.000Z,98664
2019-05-16T01:47:17.000Z,98658
2019-05-16T01:48:40.000Z,98657
2019-05-16T01:50:42.000Z,98657
2019-05-16T01:52:05.000Z,98656
2019-05-16T01:54:09.000Z,98657
2019-05-16T01:55:31.000Z,98655
2019-05-16T01:57:32.000Z,98652
2019-05-16T01:58:54.000Z,98650
2019-05-16T02:00:55.000Z,98648
2019-05-16T02:02:35.000Z,98647
2019-05-16T02:04:36.000Z,98645
2019-05-16T02:06:00.000Z,98645
2019-05-16T02:08:01.000Z,98644
2019-05-16T02:09:23.000Z,98643
2019-05-16T02:11:25.000Z,98642
2019-05-16T02:12:50.000Z,98641
2019-05-16T02:14:53.000Z,98640
2019-05-16T02:16:15.000Z,98638
2019-05-16T02:18:17.000Z,98635
2019-05-16T02:19:41.000Z,98635
2019-05-16T02:21:44.000Z,98633
2019-05-16T02:23:08.000Z,98630
2019-05-16T02:25:10.000Z,98628
2019-05-16T02:26:34.000Z,98626
2019-05-16T02:28:39.000Z,98626
2019-05-16T02:30:05.000Z,98624
2019-05-16T02:32:09.000Z,98621
2019-05-16T02:33:37.000Z,98618
2019-05-16T02:35:44.000Z,98617
2019-05-16T02:37:09.000Z,98615
2019-05-16T02:39:26.000Z,98615
2019-05-16T02:40:51.000Z,98614
2019-05-16T02:42:57.000Z,98612
2019-05-16T02:44:21.000Z,98611
2019-05-16T02:46:26.000Z,98610
2019-05-16T02:47:50.000Z,98607
2019-05-16T02:49:54.000Z,98606
2019-05-16T02:51:20.000Z,98604
2019-05-16T02:53:31.000Z,98601
2019-05-16T02:54:55.000Z,98598
2019-05-16T02:57:02.000Z,98596
2019-05-16T02:58:27.000Z,98594
2019-05-16T03:00:34.000Z,98588
2019-05-16T03:01:58.000Z,98588
2019-05-16T03:04:02.000Z,98586
2019-05-16T03:05:29.000Z,98584
2019-05-16T03:07:35.000Z,98582
2019-05-16T03:09:12.000Z,98581
2019-05-16T03:11:18.000Z,98580
2019-05-16T03:12:46.000Z,98579
2019-05-16T03:14:59.000Z,98580
2019-05-16T03:16:33.000Z,98581
2019-05-16T03:18:36.000Z,98579
2019-05-16T03:19:59.000Z,98577
2019-05-16T03:22:08.000Z,98578
2019-05-16T03:23:34.000Z,98576
2019-05-16T03:25:41.000Z,98574
2019-05-16T03:27:09.000Z,98575
2019-05-16T03:29:15.000Z,98574
2019-05-16T03:30:45.000Z,98573
2019-05-16T03:32:51.000Z,98569
2019-05-16T03:34:20.000Z,98568
2019-05-16T03:36:35.000Z,98565
2019-05-16T03:38:06.000Z,98563
2019-05-16T03:40:15.000Z,98562
2019-05-16T03:41:39.000Z,98560
2019-05-16T03:43:47.000Z,98560
2019-05-16T03:45:14.000Z,98561
2019-05-16T03:47:24.000Z,98560
2019-05-16T03:48:50.000Z,98559
2019-05-16T03:50:58.000Z,98559
2019-05-16T03:52:32.000Z,98558
2019-05-16T03:54:38.000Z,98557
2019-05-16T03:56:10.000Z,98556
2019-05-16T03:58:14.000Z,98556
2019-05-16T03:59:37.000Z,98557
2019-05-16T04:01:50.000Z,98556
2019-05-16T04:03:22.000Z,98556
2019-05-16T04:05:32.000Z,98555
2019-05-16T04:07:02.000Z,98554
2019-05-16T04:09:13.000Z,98552
2019-05-16T04:10:41.000Z,98547
2019-05-16T04:12:44.000Z,98547
2019-05-16T04:14:12.000Z,98547
2019-05-16T04:16:24.000Z,98547
2019-05-16T04:17:55.000Z,98548
2019-05-16T04:20:08.000Z,98549
2019-05-16T04:21:45.000Z,98552
2019-05-16T04:23:51.000Z,98555
2019-05-16T04:25:21.000Z,98554
2019-05-16T04:27:31.000Z,98552
2019-05-16T04:29:04.000Z,98552
2019-05-16T04:31:17.000Z,98549
2019-05-16T04:32:48.000Z,98551
2019-05-16T04:35:01.000Z,98551
2019-05-16T04:36:31.000Z,98550
2019-05-16T04:38:41.000Z,98551
2019-05-16T04:40:09.000Z,98550
2019-05-16T04:42:21.000Z,98549
2019-05-16T04:43:45.000Z,98549
2019-05-16T04:45:54.000Z,98549
2019-05-16T04:47:24.000Z,98549
2019-05-16T04:49:39.000Z,98550
2019-05-16T04:51:11.000Z,98550
2019-05-16T04:53:20.000Z,98549
2019-05-16T04:54:50.000Z,98549
2019-05-16T04:56:59.000Z,98548
2019-05-16T04:58:28.000Z,98546
2019-05-16T05:00:42.000Z,98546
2019-05-16T05:02:12.000Z,98544
2019-05-16T05:04:25.000Z,98546
2019-05-16T05:05:52.000Z,98544
2019-05-16T05:07:59.000Z,98543
2019-05-16T05:09:32.000Z,98541
2019-05-16T05:11:40.000Z,98539
2019-05-16T05:13:10.000Z,98539
2019-05-16T05:15:22.000Z,98536
2019-05-16T05:16:51.000Z,98537
2019-05-16T05:19:00.000Z,98538
2019-05-16T05:20:34.000Z,98539
2019-05-16T05:23:58.000Z,98537
2019-05-16T05:25:22.000Z,98536
2019-05-16T05:27:22.000Z,98536
2019-05-16T05:28:45.000Z,98536
2019-05-16T05:30:46.000Z,98533
2019-05-16T05:32:08.000Z,98533
2019-05-16T05:34:16.000Z,98533
2019-05-16T05:35:39.000Z,98533
2019-05-16T05:37:41.000Z,98533
2019-05-16T05:39:03.000Z,98537
2019-05-16T05:41:14.000Z,98538
2019-05-16T05:42:37.000Z,98535
2019-05-16T05:44:40.000Z,98533
2019-05-16T05:46:02.000Z,98532
2019-05-16T05:48:03.000Z,98531
2019-05-16T05:49:25.000Z,98532
2019-05-16T05:51:26.000Z,98532
2019-05-16T05:52:48.000Z,98531
2019-05-16T05:54:52.000Z,98530
2019-05-16T05:56:14.000Z,98531
2019-05-16T05:58:16.000Z,98533
2019-05-16T05:59:39.000Z,98534
2019-05-16T06:01:43.000Z,98535
2019-05-16T06:03:05.000Z,98540
2019-05-16T06:05:06.000Z,98540
2019-05-16T06:06:28.000Z,98544
2019-05-16T06:08:32.000Z,98547
2019-05-16T06:09:54.000Z,98548
2019-05-16T06:11:59.000Z,98546
2019-05-16T06:13:23.000Z,98546
2019-05-16T06:15:24.000Z,98545
2019-05-16T06:16:48.000Z,98544
2019-05-16T06:18:51.000Z,98544
2019-05-16T06:20:14.000Z,98543
2019-05-16T06:22:17.000Z,98539
2019-05-16T06:23:40.000Z,98538
2019-05-16T06:25:41.000Z,98536
2019-05-16T06:27:03.000Z,98536
2019-05-16T06:29:04.000Z,98533
2019-05-16T06:30:28.000Z,98533
2019-05-16T06:32:31.000Z,98530
2019-05-16T06:33:53.000Z,98528
2019-05-16T06:35:57.000Z,98528
2019-05-16T06:37:21.000Z,98527
2019-05-16T06:39:25.000Z,98524
2019-05-16T06:41:03.000Z,98523
2019-05-16T06:43:04.000Z,98521
2019-05-16T06:44:28.000Z,98518
2019-05-16T06:46:33.000Z,98516
2019-05-16T06:48:21.000Z,98514
2019-05-16T06:50:22.000Z,98514
2019-05-16T06:51:45.000Z,98513
2019-05-16T06:53:48.000Z,98509
2019-05-16T06:55:13.000Z,98506
2019-05-16T06:57:16.000Z,98505
2019-05-16T06:58:39.000Z,98507
2019-05-16T07:00:50.000Z,98508
2019-05-16T07:02:16.000Z,98507
2019-05-16T07:04:34.000Z,98507
2019-05-16T07:05:58.000Z,98505
2019-05-16T07:08:04.000Z,98504
2019-05-16T07:09:27.000Z,98502
2019-05-16T07:11:28.000Z,98497
2019-05-16T07:12:56.000Z,98494
2019-05-16T07:15:04.000Z,98492
2019-05-16T07:16:27.000Z,98488
2019-05-16T07:18:36.000Z,98485
2019-05-16T07:19:59.000Z,98482
2019-05-16T07:22:06.000Z,98480
2019-05-16T07:23:34.000Z,98480
2019-05-16T07:25:38.000Z,98482
2019-05-16T07:27:05.000Z,98481
2019-05-16T07:29:09.000Z,98477
2019-05-16T07:30:35.000Z,98476
2019-05-16T07:32:39.000Z,98476
2019-05-16T07:34:05.000Z,98474
2019-05-16T07:36:07.000Z,98474
2019-05-16T07:37:33.000Z,98472
2019-05-16T07:39:36.000Z,98471
2019-05-16T07:41:07.000Z,98471
2019-05-16T07:43:19.000Z,98466
2019-05-16T07:44:46.000Z,98464
2019-05-16T07:46:50.000Z,98460
2019-05-16T07:48:18.000Z,98462
2019-05-16T07:50:26.000Z,98461
2019-05-16T07:51:55.000Z,98462
2019-05-16T07:53:58.000Z,98463
2019-05-16T07:55:21.000Z,98460
2019-05-16T07:57:26.000Z,98460
2019-05-16T07:58:49.000Z,98455
2019-05-16T08:00:57.000Z,98454
2019-05-16T08:02:41.000Z,98449
2019-05-16T08:04:44.000Z,98450
2019-05-16T08:06:07.000Z,98449
2019-05-16T08:08:17.000Z,98452
2019-05-16T08:09:53.000Z,98450
2019-05-16T08:11:55.000Z,98446
2019-05-16T08:13:19.000Z,98443
2019-05-16T08:15:23.000Z,98440
2019-05-16T08:16:48.000Z,98436
2019-05-16T08:18:58.000Z,98433
2019-05-16T08:20:27.000Z,98429
2019-05-16T08:22:28.000Z,98428
2019-05-16T08:24:03.000Z,98427
2019-05-16T08:26:11.000Z,98425
2019-05-16T08:27:36.000Z,98426
2019-05-16T08:29:46.000Z,98424
2019-05-16T08:31:16.000Z,98420
2019-05-16T08:33:23.000Z,98417
2019-05-16T08:34:52.000Z,98410
2019-05-16T08:36:56.000Z,98406
2019-05-16T08:38:25.000Z,98403
2019-05-16T08:40:33.000Z,98403
2019-05-16T08:44:18.000Z,98396
2019-05-16T08:46:26.000Z,98394
2019-05-16T08:47:54.000Z,98395
2019-05-16T08:50:01.000Z,98396
2019-05-16T08:51:27.000Z,98396
2019-05-16T08:53:33.000Z,98391
2019-05-16T08:54:58.000Z,98389
2019-05-16T08:57:06.000Z,98385
2019-05-16T09:00:46.000Z,98384
2019-05-16T09:02:57.000Z,98383
2019-05-16T09:04:31.000Z,98377
2019-05-16T09:06:38.000Z,98372
2019-05-16T09:08:16.000Z,98370
2019-05-16T09:10:26.000Z,98365
2019-05-16T09:12:46.000Z,98358
2019-05-16T09:14:58.000Z,98355
2019-05-16T09:18:30.000Z,98353
2019-05-16T09:20:54.000Z,98353
2019-05-16T09:22:29.000Z,98351
2019-05-16T09:24:40.000Z,98350
2019-05-16T09:26:09.000Z,98349
2019-05-16T09:28:16.000Z,98349
2019-05-16T09:29:48.000Z,98346
2019-05-16T09:32:01.000Z,98347
2019-05-16T09:33:47.000Z,98345
2019-05-16T09:36:01.000Z,98342
2019-05-16T09:37:29.000Z,98340
2019-05-16T09:39:43.000Z,98338
2019-05-16T09:41:07.000Z,98332
2019-05-16T09:43:17.000Z,98331
2019-05-16T09:44:48.000Z,98329
2019-05-16T09:46:58.000Z,98327
2019-05-16T09:48:28.000Z,98324
2019-05-16T09:50:38.000Z,98322
2019-05-16T09:52:09.000Z,98320
2019-05-16T09:54:22.000Z,98320
2019-05-16T09:55:52.000Z,98315
2019-05-16T09:58:01.000Z,98314
2019-05-16T09:59:30.000Z,98313
2019-05-16T10:01:40.000Z,98310
2019-05-16T10:03:09.000Z,98308
2019-05-16T10:05:24.000Z,98305
2019-05-16T10:06:55.000Z,98304
2019-05-16T10:09:09.000Z,98304
2019-05-16T10:10:37.000Z,98300
2019-05-16T10:12:47.000Z,98298
2019-05-16T10:14:15.000Z,98295
2019-05-16T10:16:27.000Z,98298
2019-05-16T10:17:57.000Z,98295
2019-05-16T10:20:09.000Z,98293
2019-05-16T10:21:41.000Z,98290
2019-05-16T10:25:06.000Z,98286
2019-05-16T10:26:28.000Z,98287
2019-05-16T10:28:29.000Z,98287
2019-05-16T10:29:51.000Z,98288
2019-05-16T10:31:52.000Z,98285
2019-05-16T10:33:16.000Z,98284
2019-05-16T10:35:20.000Z,98286
2019-05-16T10:36:42.000Z,98282
2019-05-16T10:38:43.000Z,98279
2019-05-16T10:40:05.000Z,98277
2019-05-16T10:42:08.000Z,98276
2019-05-16T10:43:50.000Z,98273
2019-05-16T10:45:52.000Z,98273
2019-05-16T10:47:15.000Z,98271
2019-05-16T10:49:18.000Z,98270
2019-05-16T10:51:00.000Z,98268
2019-05-16T10:53:02.000Z,98266
2019-05-16T10:54:50.000Z,98263
2019-05-16T10:57:05.000Z,98259
2019-05-16T10:58:31.000Z,98259
2019-05-16T11:00:48.000Z,98259
2019-05-16T11:02:36.000Z,98259
2019-05-16T11:04:38.000Z,98258
2019-05-16T11:06:21.000Z,98261
2019-05-16T11:08:29.000Z,98261
2019-05-16T11:09:51.000Z,98259
2019-05-16T11:12:03.000Z,98260
2019-05-16T11:13:30.000Z,98260
2019-05-16T11:15:32.000Z,98261
2019-05-16T11:16:54.000Z,98262
2019-05-16T11:18:59.000Z,98260
2019-05-16T11:20:36.000Z,98264
2019-05-16T11:22:38.000Z,98263
2019-05-16T11:24:00.000Z,98266
2019-05-16T11:26:01.000Z,98269
2019-05-16T11:27:23.000Z,98272
2019-05-16T11:29:24.000Z,98277
2019-05-16T11:30:47.000Z,98278
2019-05-16T11:32:48.000Z,98276
2019-05-16T11:34:12.000Z,98277
2019-05-16T11:36:14.000Z,98277
2019-05-16T11:37:39.000Z,98274
2019-05-16T11:39:40.000Z,98273
2019-05-16T11:41:02.000Z,98273
2019-05-16T11:43:04.000Z,98273
2019-05-16T11:44:40.000Z,98272
2019-05-16T11:46:42.000Z,98270
2019-05-16T11:48:05.000Z,98267
2019-05-16T11:50:07.000Z,98264
2019-05-16T11:51:29.000Z,98262
2019-05-16T11:53:30.000Z,98265
2019-05-16T11:54:54.000Z,98267
2019-05-16T11:56:59.000Z,98264
2019-05-16T11:58:22.000Z,98262
2019-05-16T12:00:24.000Z,98260
2019-05-16T12:01:54.000Z,98256
2019-05-16T12:03:58.000Z,98254
2019-05-16T12:05:21.000Z,98254
2019-05-16T12:07:22.000Z,98254
2019-05-16T12:08:46.000Z,98257
2019-05-16T12:10:47.000Z,98259
2019-05-16T12:12:12.000Z,98263
2019-05-16T12:14:16.000Z,98261
2019-05-16T12:15:40.000Z,98259
2019-05-16T12:17:43.000Z,98259
2019-05-16T12:19:05.000Z,98259
2019-05-16T12:21:09.000Z,98258
2019-05-16T12:22:35.000Z,98261
2019-05-16T12:24:42.000Z,98261
2019-05-16T12:26:05.000Z,98260
2019-05-16T12:28:09.000Z,98261
2019-05-16T12:29:33.000Z,98264
2019-05-16T12:31:37.000Z,98267
2019-05-16T12:33:01.000Z,98266
2019-05-16T12:35:08.000Z,98266
2019-05-16T12:36:32.000Z,98264
2019-05-16T12:38:34.000Z,98260
2019-05-16T12:40:06.000Z,98258
2019-05-16T12:42:09.000Z,98256
2019-05-16T12:43:32.000Z,98252
2019-05-16T12:45:56.000Z,98247
2019-05-16T12:47:20.000Z,98246
2019-05-16T12:49:22.000Z,98244
2019-05-16T12:50:49.000Z,98243
2019-05-16T12:52:56.000Z,98242
2019-05-16T12:54:23.000Z,98242
2019-05-16T12:56:29.000Z,98241
2019-05-16T12:57:57.000Z,98240
2019-05-16T13:00:17.000Z,98239
2019-05-16T13:01:42.000Z,98237
2019-05-16T13:03:48.000Z,98236
2019-05-16T13:05:11.000Z,98238
2019-05-16T13:07:21.000Z,98240
2019-05-16T13:08:49.000Z,98238
2019-05-16T13:10:50.000Z,98238
2019-05-16T13:12:14.000Z,98233
2019-05-16T13:14:21.000Z,98230
2019-05-16T13:15:48.000Z,98230
2019-05-16T13:17:53.000Z,98226
2019-05-16T13:19:19.000Z,98221
2019-05-16T13:21:25.000Z,98215
2019-05-16T13:22:59.000Z,98215
2019-05-16T13:25:01.000Z,98213
2019-05-16T13:26:29.000Z,98217
2019-05-16T13:28:35.000Z,98219
2019-05-16T13:30:01.000Z,98220
2019-05-16T13:32:09.000Z,98219
2019-05-16T13:33:41.000Z,98216
2019-05-16T13:37:22.000Z,98214
2019-05-16T13:39:24.000Z,98209
2019-05-16T13:40:49.000Z,98207
2019-05-16T13:42:50.000Z,98205
2019-05-16T13:44:13.000Z,98200
2019-05-16T13:46:24.000Z,98199
2019-05-16T13:47:48.000Z,98200
2019-05-16T13:49:50.000Z,98200
2019-05-16T13:51:12.000Z,98199
2019-05-16T13:53:19.000Z,98198
2019-05-16T13:54:41.000Z,98195
2019-05-16T13:56:42.000Z,98192
2019-05-16T13:58:03.000Z,98188
2019-05-16T14:00:05.000Z,98185
2019-05-16T14:01:30.000Z,98183
2019-05-16T14:03:31.000Z,98183
2019-05-16T14:04:53.000Z,98180
2019-05-16T14:06:54.000Z,98178
2019-05-16T14:08:20.000Z,98180
2019-05-16T14:10:21.000Z,98181
2019-05-16T14:11:44.000Z,98181
2019-05-16T14:13:47.000Z,98182
2019-05-16T14:15:09.000Z,98182
2019-05-16T14:17:12.000Z,98180
2019-05-16T14:18:37.000Z,98181
2019-05-16T14:20:39.000Z,98181
2019-05-16T14:22:01.000Z,98180
2019-05-16T14:24:02.000Z,98178
2019-05-16T14:25:24.000Z,98178
2019-05-16T14:27:25.000Z,98173
2019-05-16T14:28:48.000Z,98170
2019-05-16T14:30:50.000Z,98166
2019-05-16T14:32:12.000Z,98164
2019-05-16T14:34:16.000Z,98161
2019-05-16T14:35:41.000Z,98160
2019-05-16T14:37:42.000Z,98159
2019-05-16T14:39:04.000Z,98158
2019-05-16T14:41:05.000Z,98158
2019-05-16T14:42:32.000Z,98159
2019-05-16T14:44:33.000Z,98160
2019-05-16T14:46:27.000Z,98161
2019-05-16T14:48:29.000Z,98161
2019-05-16T14:49:52.000Z,98159
2019-05-16T14:51:53.000Z,98158
2019-05-16T14:53:16.000Z,98157
2019-05-16T14:55:20.000Z,98155
2019-05-16T14:56:43.000Z,98151
2019-05-16T14:58:47.000Z,98150
2019-05-16T15:00:12.000Z,98148
2019-05-16T15:02:15.000Z,98148
2019-05-16T15:03:40.000Z,98147
2019-05-16T15:05:41.000Z,98145
2019-05-16T15:07:05.000Z,98144
2019-05-16T15:09:08.000Z,98145
2019-05-16T15:10:30.000Z,98143
2019-05-16T15:12:31.000Z,98140
2019-05-16T15:13:53.000Z,98138
2019-05-16T15:15:54.000Z,98137
2019-05-16T15:17:19.000Z,98135
2019-05-16T15:19:23.000Z,98133
2019-05-16T15:20:46.000Z,98133
2019-05-16T15:22:49.000Z,98130
2019-05-16T15:24:13.000Z,98127
2019-05-16T15:26:15.000Z,98127
2019-05-16T15:27:42.000Z,98125
2019-05-16T15:29:43.000Z,98126
2019-05-16T15:31:06.000Z,98124
2019-05-16T15:33:11.000Z,98121
2019-05-16T15:34:35.000Z,98120
2019-05-16T15:36:39.000Z,98117
2019-05-16T15:38:02.000Z,98116
2019-05-16T15:40:08.000Z,98112
2019-05-16T15:41:34.000Z,98112
2019-05-16T15:43:37.000Z,98111
2019-05-16T15:45:00.000Z,98108
2019-05-16T15:47:03.000Z,98107
2019-05-16T15:48:26.000Z,98105
2019-05-16T15:50:32.000Z,98107
2019-05-16T15:51:56.000Z,98107
2019-05-16T15:54:01.000Z,98108
2019-05-16T15:55:25.000Z,98108
2019-05-16T15:57:32.000Z,98106
2019-05-16T15:58:57.000Z,98106
2019-05-16T16:01:00.000Z,98106
2019-05-16T16:02:29.000Z,98104
2019-05-16T16:04:32.000Z,98103
2019-05-16T16:05:55.000Z,98104
2019-05-16T16:08:01.000Z,98104
2019-05-16T16:09:24.000Z,98102
2019-05-16T16:11:32.000Z,98100
2019-05-16T16:12:57.000Z,98098
2019-05-16T16:15:00.000Z,98094
2019-05-16T16:16:24.000Z,98093
2019-05-16T16:18:35.000Z,98090
2019-05-16T16:20:02.000Z,98088
2019-05-16T16:22:07.000Z,98085
2019-05-16T16:23:32.000Z,98084
2019-05-16T16:25:36.000Z,98081
2019-05-16T16:27:04.000Z,98079
2019-05-16T16:29:05.000Z,98078
2019-05-16T16:30:33.000Z,98078
2019-05-16T16:32:42.000Z,98077
2019-05-16T16:34:12.000Z,98077
2019-05-16T16:36:14.000Z,98077
2019-05-16T16:37:45.000Z,98077
2019-05-16T16:39:53.000Z,98076
2019-05-16T16:41:18.000Z,98074
2019-05-16T16:43:23.000Z,98072
2019-05-16T16:44:49.000Z,98072
2019-05-16T16:46:54.000Z,98069
2019-05-16T16:48:25.000Z,98067
2019-05-16T16:50:32.000Z,98067
2019-05-16T16:52:03.000Z,98067
2019-05-16T16:54:11.000Z,98067
2019-05-16T16:55:36.000Z,98064
2019-05-16T16:57:42.000Z,98063
2019-05-16T16:59:08.000Z,98065
2019-05-16T17:01:13.000Z,98064
2019-05-16T17:02:39.000Z,98065
2019-05-16T17:04:47.000Z,98065
2019-05-16T17:06:19.000Z,98065
2019-05-16T17:08:29.000Z,98066
2019-05-16T17:09:56.000Z,98063
2019-05-16T17:12:04.000Z,98062
2019-05-16T17:13:33.000Z,98060
2019-05-16T17:15:44.000Z,98060
2019-05-16T17:17:17.000Z,98060
2019-05-16T17:19:28.000Z,98061
2019-05-16T17:20:54.000Z,98059
2019-05-16T17:23:07.000Z,98057
2019-05-16T17:24:37.000Z,98056
2019-05-16T17:26:46.000Z,98055
2019-05-16T17:28:17.000Z,98054
2019-05-16T17:32:20.000Z,98054
2019-05-16T17:33:42.000Z,98053
2019-05-16T17:35:43.000Z,98052
2019-05-16T17:37:05.000Z,98052
2019-05-16T17:39:10.000Z,98052
2019-05-16T17:40:33.000Z,98054
2019-05-16T17:42:34.000Z,98055
2019-05-16T17:43:59.000Z,98056
2019-05-16T17:46:00.000Z,98055
2019-05-16T17:47:22.000Z,98057
2019-05-16T17:49:22.000Z,98056
2019-05-16T17:50:45.000Z,98055
2019-05-16T17:52:47.000Z,98056
2019-05-16T17:54:09.000Z,98056
2019-05-16T17:56:11.000Z,98056
2019-05-16T17:57:33.000Z,98057
2019-05-16T17:59:34.000Z,98057
2019-05-16T18:00:56.000Z,98059
2019-05-16T18:03:01.000Z,98060
2019-05-16T18:04:25.000Z,98059
2019-05-16T18:06:28.000Z,98058
2019-05-16T18:07:50.000Z,98059
2019-05-16T18:09:51.000Z,98058
2019-05-16T18:11:13.000Z,98057
2019-05-16T18:13:14.000Z,98057
2019-05-16T18:14:36.000Z,98056
2019-05-16T18:16:38.000Z,98056
2019-05-16T18:18:19.000Z,98057
2019-05-16T18:20:21.000Z,98057
2019-05-16T18:21:46.000Z,98056
2019-05-16T18:23:48.000Z,98055
2019-05-16T18:25:11.000Z,98053
2019-05-16T18:27:12.000Z,98053
2019-05-16T18:28:35.000Z,98053
2019-05-16T18:30:38.000Z,98053
2019-05-16T18:32:00.000Z,98055
2019-05-16T18:34:01.000Z,98052
2019-05-16T18:35:24.000Z,98053
2019-05-16T18:37:30.000Z,98051
2019-05-16T18:38:56.000Z,98050
2019-05-16T18:40:59.000Z,98050
2019-05-16T18:42:22.000Z,98049
2019-05-16T18:44:24.000Z,98049
2019-05-16T18:45:47.000Z,98049
2019-05-16T18:47:48.000Z,98048
2019-05-16T18:49:12.000Z,98048
2019-05-16T18:51:16.000Z,98048
2019-05-16T18:52:41.000Z,98047
2019-05-16T18:54:42.000Z,98049
2019-05-16T18:56:05.000Z,98047
2019-05-16T18:58:09.000Z,98048
2019-05-16T18:59:32.000Z,98050
2019-05-16T19:01:36.000Z,98049
2019-05-16T19:03:00.000Z,98047
2019-05-16T19:05:03.000Z,98048
2019-05-16T19:06:27.000Z,98046
2019-05-16T19:08:29.000Z,98044
2019-05-16T19:09:55.000Z,98042
2019-05-16T19:11:58.000Z,98040
2019-05-16T19:13:25.000Z,98038
2019-05-16T19:15:32.000Z,98039
2019-05-16T19:16:55.000Z,98038
2019-05-16T19:19:00.000Z,98036
2019-05-16T19:20:24.000Z,98036
2019-05-16T19:22:28.000Z,98035
2019-05-16T19:23:53.000Z,98034
2019-05-16T19:25:58.000Z,98033
2019-05-16T19:27:22.000Z,98031
2019-05-16T19:29:25.000Z,98030
2019-05-16T19:30:49.000Z,98030
2019-05-16T19:32:53.000Z,98029
2019-05-16T19:34:20.000Z,98028
2019-05-16T19:36:24.000Z,98027
2019-05-16T19:37:51.000Z,98026
2019-05-16T19:39:56.000Z,98025
2019-05-16T19:41:21.000Z,98024
2019-05-16T19:43:25.000Z,98022
2019-05-16T19:44:53.000Z,98021
2019-05-16T19:46:56.000Z,98020
2019-05-16T19:48:20.000Z,98021
2019-05-16T19:50:24.000Z,98020
2019-05-16T19:51:52.000Z,98019
2019-05-16T19:53:54.000Z,98020
2019-05-16T19:55:24.000Z,98018
2019-05-16T19:57:29.000Z,98016
2019-05-16T19:58:51.000Z,98015
2019-05-16T20:01:01.000Z,98016
2019-05-16T20:02:25.000Z,98015
2019-05-16T20:04:28.000Z,98016
2019-05-16T20:05:54.000Z,98016
2019-05-16T20:09:31.000Z,98016
2019-05-16T20:10:04.000Z,98016
2019-05-16T20:11:33.000Z,98015
2019-05-16T20:13:36.000Z,98016
2019-05-16T20:15:04.000Z,98015
2019-05-16T20:17:19.000Z,98014
2019-05-16T20:18:47.000Z,98012
2019-05-16T20:20:49.000Z,98012
2019-05-16T20:22:14.000Z,98010
2019-05-16T20:24:23.000Z,98011
2019-05-16T20:25:47.000Z,98010
2019-05-16T20:27:53.000Z,98008
2019-05-16T20:29:18.000Z,98007
2019-05-16T20:31:21.000Z,98008
2019-05-16T20:32:48.000Z,98007
2019-05-16T20:34:56.000Z,98007
2019-05-16T20:36:24.000Z,98006
2019-05-16T20:38:34.000Z,98004
2019-05-16T20:39:59.000Z,98003
2019-05-16T20:42:07.000Z,98002
2019-05-16T20:43:32.000Z,98001
2019-05-16T20:45:37.000Z,98000
2019-05-16T20:47:07.000Z,98000
2019-05-16T20:49:13.000Z,97998
2019-05-16T20:50:37.000Z,97997
2019-05-16T20:52:45.000Z,97996
2019-05-16T20:54:18.000Z,97994
2019-05-16T20:56:22.000Z,97994
2019-05-16T20:57:49.000Z,97993
2019-05-16T21:00:00.000Z,97990
2019-05-16T21:01:27.000Z,97990
2019-05-16T21:03:35.000Z,97989
2019-05-16T21:05:07.000Z,97989
2019-05-16T21:07:16.000Z,97989
2019-05-16T21:08:45.000Z,97989
2019-05-16T21:10:53.000Z,97989
2019-05-16T21:12:23.000Z,97986
2019-05-16T21:14:31.000Z,97987
2019-05-16T21:16:02.000Z,97985
2019-05-16T21:18:09.000Z,97987
2019-05-16T21:19:38.000Z,97986
2019-05-16T21:21:52.000Z,97986
2019-05-16T21:23:18.000Z,97985
2019-05-16T21:25:24.000Z,97985
2019-05-16T21:26:54.000Z,97983
2019-05-16T21:29:00.000Z,97980
2019-05-16T21:30:31.000Z,97976
2019-05-16T21:32:38.000Z,97975
2019-05-16T21:34:08.000Z,97976
2019-05-16T21:37:52.000Z,97976
2019-05-16T21:39:54.000Z,97973
2019-05-16T21:41:16.000Z,97974
2019-05-16T21:43:17.000Z,97972
2019-05-16T21:44:39.000Z,97970
2019-05-16T21:46:40.000Z,97968
2019-05-16T21:48:02.000Z,97966
2019-05-16T21:50:03.000Z,97964
2019-05-16T21:51:25.000Z,97962
2019-05-16T21:53:27.000Z,97962
2019-05-16T21:54:51.000Z,97961
2019-05-16T21:56:52.000Z,97959
2019-05-16T21:58:14.000Z,97958
2019-05-16T22:00:15.000Z,97955
2019-05-16T22:01:37.000Z,97954
2019-05-16T22:03:39.000Z,97953
2019-05-16T22:05:01.000Z,97953
2019-05-16T22:07:02.000Z,97952
2019-05-16T22:08:24.000Z,97952
2019-05-16T22:10:27.000Z,97952
2019-05-16T22:11:49.000Z,97953
2019-05-16T22:13:51.000Z,97952
2019-05-16T22:15:14.000Z,97951
2019-05-16T22:17:14.000Z,97950
2019-05-16T22:18:38.000Z,97951
2019-05-16T22:20:39.000Z,97951
2019-05-16T22:22:01.000Z,97950
2019-05-16T22:24:03.000Z,97946
2019-05-16T22:25:26.000Z,97946
2019-05-16T22:27:28.000Z,97943
2019-05-16T22:28:50.000Z,97941
2019-05-16T22:30:52.000Z,97937
2019-05-16T22:32:14.000Z,97935
2019-05-16T22:34:17.000Z,97933
2019-05-16T22:35:41.000Z,97929
2019-05-16T22:37:43.000Z,97926
2019-05-16T22:39:17.000Z,97925
2019-05-16T22:41:18.000Z,97926
2019-05-16T22:42:42.000Z,97927
2019-05-16T22:44:43.000Z,97926
2019-05-16T22:46:09.000Z,97924
2019-05-16T22:48:13.000Z,97923
2019-05-16T22:49:35.000Z,97921
2019-05-16T22:51:37.000Z,97919
2019-05-16T22:53:00.000Z,97917
2019-05-16T22:55:02.000Z,97918
2019-05-16T22:56:25.000Z,97916
2019-05-16T22:58:27.000Z,97914
2019-05-16T22:59:49.000Z,97913